Portada
METAR-TAF:

METAR-TAF

Aeroports :

Madrid-Getafe, Espanya

latitud: 40-18N, longitud: 003-43W, altitud: 620 m

Observació

L'informe es va fer fa 31 minuts, a les 05:00 UTC
Vent 7 kt del Est/Sud-Est
Temperatura 2°C
Humitat 75%
Pressió 1027 hPa
Visibilitat 10 km o més
sense núvols per sota de 1500 mi sense presència de cumulonimbus.

METAR: LEGT 200500Z 11007KT CAVOK 02/M02 Q1027

Hora: 06:31 (05:31 UTC)

Pronòstic

L'informe es va fer fa 3 hores i 31 minuts, a les 02:00 UTC
Pronòstic vàlid del 20 a les 03 UTC al 20 a les 12 UTC
Vent 8 kt del Nord-Est
Visibilitat 10 km o més
sense núvols per sota de 1500 mi sense presència de cumulonimbus.

TAF: LEGT 200200Z 2003/2012 05008KT CAVOK

Observacions i pronòstics meteorològics de més de 4000 aeroports (METAR i TAF).

Les estacions disponibles són els punts grocs i vermells al mapa.

Posi el ratolí al punt desitjat per veure el nom de l'estació.

Feu clic per veure les observacions i els pronòstics meteorològics.

Per canviar el mapa: feu clic els botons verds amb una creu de color negre per apropar; al botó verd amb un guió per allunyar la imatge; o en les fletxes verdes per a mapes adjacents.


METAR-TAF: